Time;durP1;ratioP1;P1;durP2;ratioP2;P2;SDS_P1;SDS_P2;PMS_P1;PMS_P2;Temp;Humidity;BMP_temperature;BMP_pressure;BME280_temperature;BME280_humidity;BME280_pressure;Samples;Min_cycle;Max_cycle;Signal;HPM_P1;HPM_P2
2020/12/04 00:00:32;;;;;;;27.30;19.57;;;;;;;-3.38;94.98;95995.06;4989261;28;20698;-70
2020/12/04 00:03:00;;;;;;;24.60;18.60;;;;;;;-3.47;95.41;95988.06;4961206;28;20455;-70
2020/12/04 00:05:27;;;;;;;23.53;17.63;;;;;;;-3.49;95.85;95982.97;4983014;28;21578;-71
2020/12/04 00:07:54;;;;;;;22.50;18.63;;;;;;;-3.35;94.20;95985.28;4983551;28;20488;-70
2020/12/04 00:10:21;;;;;;;25.60;18.73;;;;;;;-3.31;93.96;95985.03;4989769;28;20466;-69
2020/12/04 00:12:48;;;;;;;23.97;17.53;;;;;;;-3.42;94.38;95980.72;4984519;28;20855;-70
2020/12/04 00:15:16;;;;;;;23.90;18.30;;;;;;;-3.40;94.78;95971.06;4996151;28;20850;-70
2020/12/04 00:17:43;;;;;;;22.57;18.77;;;;;;;-3.39;96.20;95973.53;4963517;28;20470;-69
2020/12/04 00:20:11;;;;;;;21.73;16.93;;;;;;;-3.42;95.22;95968.56;4998358;28;20551;-70
2020/12/04 00:22:38;;;;;;;26.30;18.60;;;;;;;-3.50;96.10;95969.22;4976271;28;22355;-69
2020/12/04 00:25:05;;;;;;;26.17;19.20;;;;;;;-3.53;96.34;95966.91;4996673;28;21058;-71
2020/12/04 00:27:32;;;;;;;22.10;17.97;;;;;;;-3.42;95.31;95966.00;4992141;28;20491;-71
2020/12/04 00:30:00;;;;;;;25.03;18.77;;;;;;;-3.39;95.42;95960.59;4987042;28;20495;-70
2020/12/04 00:32:27;;;;;;;21.47;17.73;;;;;;;-3.46;95.83;95953.44;4991456;28;20458;-70
2020/12/04 00:34:55;;;;;;;25.67;18.67;;;;;;;-3.45;95.90;95958.47;4964397;28;20502;-71
2020/12/04 00:37:23;;;;;;;24.73;19.77;;;;;;;-3.33;94.55;95955.84;4982803;28;20558;-70
2020/12/04 00:39:53;;;;;;;21.83;17.40;;;;;;;-3.29;94.44;95946.84;4984230;28;20463;-70
2020/12/04 00:42:21;;;;;;;24.43;19.00;;;;;;;-3.38;95.44;95931.13;4990990;28;21045;-70
2020/12/04 00:44:48;;;;;;;23.40;19.00;;;;;;;-3.40;94.76;95927.84;4987048;28;20567;-70
2020/12/04 00:47:15;;;;;;;25.63;19.87;;;;;;;-3.35;95.36;95928.28;4994817;28;20456;-70
2020/12/04 00:49:42;;;;;;;24.93;18.70;;;;;;;-3.23;93.69;95931.59;4961641;28;20514;-71
2020/12/04 00:52:09;;;;;;;24.73;19.03;;;;;;;-3.29;93.95;95926.13;4997882;28;20810;-70
2020/12/04 00:54:38;;;;;;;26.43;20.07;;;;;;;-3.32;94.10;95918.63;4976194;28;22081;-71
2020/12/04 00:57:06;;;;;;;26.13;17.97;;;;;;;-3.18;94.11;95917.47;4996054;28;20463;-70
2020/12/04 00:59:34;;;;;;;28.40;18.73;;;;;;;-3.21;93.52;95902.97;4983595;28;20709;-70
2020/12/04 01:02:01;;;;;;;26.13;18.17;;;;;;;-3.31;94.66;95910.69;4997630;28;20546;-70
2020/12/04 01:04:28;;;;;;;25.20;18.70;;;;;;;-3.18;93.82;95910.50;4992027;28;20479;-71
2020/12/04 01:06:55;;;;;;;23.03;16.93;;;;;;;-3.04;92.98;95919.69;4964386;28;20459;-69
2020/12/04 01:09:22;;;;;;;25.63;19.20;;;;;;;-3.17;93.94;95909.53;4982067;28;21003;-69
2020/12/04 01:11:51;;;;;;;22.40;18.33;;;;;;;-3.14;93.09;95903.28;4984660;28;20796;-71
2020/12/04 01:14:18;;;;;;;19.83;17.07;;;;;;;-2.94;91.89;95899.81;4985696;28;20838;-69
2020/12/04 01:16:46;;;;;;;24.87;18.00;;;;;;;-3.05;92.89;95897.31;4997964;28;20482;-69
2020/12/04 01:19:14;;;;;;;22.97;17.33;;;;;;;-3.09;92.93;95891.56;4995120;28;20485;-70
2020/12/04 01:21:47;;;;;;;21.57;17.30;;;;;;;-3.18;94.24;95886.38;4962175;28;20464;-70
2020/12/04 01:24:14;;;;;;;22.93;16.37;;;;;;;-3.17;94.86;95880.25;4987102;28;20478;-70
2020/12/04 01:26:41;;;;;;;25.30;18.90;;;;;;;-3.05;94.10;95886.97;4977409;28;20562;-70
2020/12/04 01:29:10;;;;;;;24.87;18.93;;;;;;;-3.13;94.44;95879.84;4995712;28;21019;-70
2020/12/04 01:31:37;;;;;;;22.67;18.63;;;;;;;-2.96;93.50;95872.41;4985134;28;20716;-71
2020/12/04 01:34:04;;;;;;;19.50;16.70;;;;;;;-2.99;94.19;95876.06;4993296;28;20951;-70
2020/12/04 01:36:32;;;;;;;22.27;18.40;;;;;;;-2.95;92.94;95877.44;4994353;28;20460;-71
2020/12/04 01:38:59;;;;;;;27.63;20.53;;;;;;;-2.94;94.27;95875.69;4963929;28;21128;-71
2020/12/04 01:41:26;;;;;;;25.33;19.17;;;;;;;-2.93;93.77;95879.91;4984245;28;20461;-71
2020/12/04 01:43:53;;;;;;;21.53;17.33;;;;;;;-2.92;93.50;95877.16;4984531;28;20630;-71
2020/12/04 01:46:21;;;;;;;23.40;18.07;;;;;;;-2.92;94.02;95866.81;4982408;28;20453;-71
2020/12/04 01:48:48;;;;;;;22.43;18.27;;;;;;;-2.85;92.68;95859.31;4997423;28;20488;-70
2020/12/04 01:51:16;;;;;;;21.10;16.73;;;;;;;-2.89;93.34;95862.31;4995105;28;20452;-70
2020/12/04 01:53:45;;;;;;;23.87;18.20;;;;;;;-2.79;92.72;95861.38;4961499;28;20478;-71
2020/12/04 01:56:12;;;;;;;24.80;18.73;;;;;;;-2.88;93.41;95862.19;4988548;28;20522;-71
2020/12/04 01:58:39;;;;;;;22.40;17.00;;;;;;;-2.86;92.96;95860.28;4978076;28;20972;-71
2020/12/04 02:01:07;;;;;;;22.33;17.57;;;;;;;-2.92;93.85;95853.84;4994478;28;20551;-70
2020/12/04 02:03:35;;;;;;;23.93;17.97;;;;;;;-2.84;93.93;95850.59;4985059;28;20456;-71
2020/12/04 02:06:04;;;;;;;25.47;18.17;;;;;;;-2.75;92.57;95848.97;4993103;28;20860;-69
2020/12/04 02:08:38;;;;;;;23.60;17.77;;;;;;;-2.66;93.12;95848.16;4958886;28;20721;-71
2020/12/04 02:11:13;;;;;;;22.13;17.03;;;;;;;-2.76;93.79;95852.53;4993650;28;20458;-70
2020/12/04 02:13:41;;;;;;;23.00;18.27;;;;;;;-2.60;92.37;95848.59;4972396;28;20902;-70
2020/12/04 02:16:09;;;;;;;26.77;17.60;;;;;;;-2.63;92.28;95845.31;4992332;28;20452;-69
2020/12/04 02:18:37;;;;;;;24.57;18.67;;;;;;;-2.53;93.06;95834.94;4985760;28;20753;-70
2020/12/04 02:21:05;;;;;;;23.60;17.97;;;;;;;-2.48;91.65;95842.31;4995100;28;20456;-70
2020/12/04 02:23:32;;;;;;;21.83;18.47;;;;;;;-2.58;91.96;95841.47;4995141;28;20452;-71
2020/12/04 02:26:00;;;;;;;24.37;18.03;;;;;;;-2.64;92.25;95819.53;4957386;28;20472;-70
2020/12/04 02:28:31;;;;;;;22.70;18.80;;;;;;;-2.63;92.62;95814.19;4983514;28;20526;-70
2020/12/04 02:30:58;;;;;;;23.80;17.63;;;;;;;-2.64;93.70;95827.31;4983547;28;20491;-70
2020/12/04 02:33:26;;;;;;;22.50;18.03;;;;;;;-2.55;92.56;95820.47;4981767;28;20460;-70
2020/12/04 02:35:53;;;;;;;26.00;18.67;;;;;;;-2.60;93.26;95817.47;4998090;28;20539;-70
2020/12/04 02:38:22;;;;;;;25.17;19.60;;;;;;;-2.52;92.24;95815.00;4993006;28;20820;-70
2020/12/04 02:40:49;;;;;;;23.47;18.47;;;;;;;-2.55;93.61;95810.91;4958022;28;20570;-70
2020/12/04 02:43:17;;;;;;;29.37;19.57;;;;;;;-2.62;94.74;95804.66;4979982;28;20907;-70
2020/12/04 02:45:44;;;;;;;26.97;20.20;;;;;;;-2.65;93.64;95799.72;4979976;28;20480;-68
2020/12/04 02:48:11;;;;;;;26.43;19.37;;;;;;;-2.72;95.00;95785.66;4980751;28;20484;-70
2020/12/04 02:50:39;;;;;;;21.90;18.73;;;;;;;-2.74;95.46;95780.63;4998080;28;20456;-69
2020/12/04 02:53:07;;;;;;;27.73;19.47;;;;;;;-2.80;95.62;95781.97;4991997;28;20459;-70
2020/12/04 02:55:35;;;;;;;27.23;20.07;;;;;;;-2.71;94.57;95780.34;4957235;28;20709;-70
2020/12/04 02:58:02;;;;;;;24.30;20.97;;;;;;;-2.81;95.56;95777.72;4990926;28;20457;-69
2020/12/04 03:00:29;;;;;;;29.27;20.70;;;;;;;-2.74;95.74;95778.03;4974500;28;20460;-70
2020/12/04 03:02:56;;;;;;;29.03;21.53;;;;;;;-2.62;95.75;95776.91;4995126;28;20467;-69
2020/12/04 03:05:24;;;;;;;27.73;21.10;;;;;;;-2.62;95.56;95770.94;4982528;28;20717;-71
2020/12/04 03:07:51;;;;;;;27.63;19.93;;;;;;;-2.53;94.86;95767.50;4994834;28;20938;-71
2020/12/04 03:10:18;;;;;;;27.97;20.73;;;;;;;-2.38;93.07;95774.88;4988108;28;20559;-70
2020/12/04 03:12:47;;;;;;;27.83;20.17;;;;;;;-2.43;92.75;95770.09;4955036;28;20473;-70
2020/12/04 03:15:14;;;;;;;25.73;19.20;;;;;;;-2.55;93.95;95778.97;4966045;28;20768;-70
2020/12/04 03:17:42;;;;;;;27.67;20.97;;;;;;;-2.54;93.72;95773.66;4993035;28;20452;-70
2020/12/04 03:20:09;;;;;;;27.67;19.77;;;;;;;-2.50;94.24;95780.19;4980559;28;20501;-70
2020/12/04 03:22:36;;;;;;;27.63;20.27;;;;;;;-2.51;94.20;95783.75;4981852;28;20448;-70
2020/12/04 03:25:04;;;;;;;28.50;19.80;;;;;;;-2.48;94.79;95778.28;4990050;28;20483;-71
2020/12/04 03:27:31;;;;;;;25.60;19.80;;;;;;;-2.60;95.40;95784.59;4958104;28;20455;-70
2020/12/04 03:29:59;;;;;;;28.17;20.70;;;;;;;-2.50;93.69;95782.78;4979612;28;20990;-72
2020/12/04 03:32:26;;;;;;;27.53;19.57;;;;;;;-2.59;95.75;95768.06;4981298;28;20466;-71
2020/12/04 03:34:53;;;;;;;25.80;19.23;;;;;;;-2.53;95.91;95782.25;4990339;28;20856;-70
2020/12/04 03:37:22;;;;;;;27.47;20.40;;;;;;;-2.44;96.14;95775.41;4980586;28;20991;-72
2020/12/04 03:39:49;;;;;;;30.90;22.03;;;;;;;-2.37;96.72;95756.56;4985659;28;20784;-67
2020/12/04 03:42:16;;;;;;;28.97;21.37;;;;;;;-2.36;95.56;95744.41;4991624;28;20471;-68
2020/12/04 03:44:43;;;;;;;30.17;21.93;;;;;;;-2.28;95.99;95733.34;4950276;28;20834;-71
2020/12/04 03:47:11;;;;;;;28.33;21.60;;;;;;;-2.42;95.54;95727.66;4968638;28;20571;-70
2020/12/04 03:49:39;;;;;;;28.20;20.80;;;;;;;-2.40;94.96;95720.53;4988271;28;20480;-70
2020/12/04 03:52:06;;;;;;;30.00;22.23;;;;;;;-2.48;95.81;95702.22;4983077;28;20456;-70
2020/12/04 03:54:33;;;;;;;29.13;20.30;;;;;;;-2.49;96.31;95701.44;4989386;28;20579;-70
2020/12/04 03:57:00;;;;;;;27.53;21.20;;;;;;;-2.36;94.21;95708.91;4991299;28;20587;-72
2020/12/04 03:59:28;;;;;;;27.57;20.20;;;;;;;-2.41;95.63;95705.09;4958356;28;20562;-71
2020/12/04 04:01:55;;;;;;;25.97;19.27;;;;;;;-2.35;94.73;95702.78;4980584;28;20731;-70
2020/12/04 04:04:23;;;;;;;28.00;19.87;;;;;;;-2.37;96.22;95707.28;4993839;28;20559;-71
2020/12/04 04:06:50;;;;;;;24.23;18.93;;;;;;;-2.11;93.89;95703.25;4978759;28;21077;-71
2020/12/04 04:09:17;;;;;;;24.80;19.80;;;;;;;-2.19;94.43;95696.16;4991053;28;20488;-69
2020/12/04 04:11:44;;;;;;;24.63;19.53;;;;;;;-2.14;94.57;95698.34;4990845;28;20448;-70
2020/12/04 04:14:12;;;;;;;27.03;20.57;;;;;;;-2.20;95.38;95677.19;4988554;28;20480;-70
2020/12/04 04:16:39;;;;;;;26.50;18.77;;;;;;;-2.16;95.32;95669.13;4956639;28;21475;-70
2020/12/04 04:19:06;;;;;;;30.10;20.13;;;;;;;-2.15;94.79;95681.94;4983102;28;20451;-71
2020/12/04 04:21:39;;;;;;;25.03;18.13;;;;;;;-2.02;93.45;95689.44;4990677;28;20459;-70
2020/12/04 04:24:06;;;;;;;27.00;19.17;;;;;;;-1.94;93.62;95696.50;4980636;28;20228;-71
2020/12/04 04:26:33;;;;;;;24.90;19.27;;;;;;;-1.98;94.33;95708.13;4990668;28;20819;-70
2020/12/04 04:29:01;;;;;;;24.37;19.43;;;;;;;-2.06;95.07;95703.66;4987492;28;21096;-70
2020/12/04 04:31:28;;;;;;;27.43;19.87;;;;;;;-2.18;94.42;95695.22;4957840;28;20654;-70
2020/12/04 04:33:55;;;;;;;26.13;18.97;;;;;;;-2.17;96.01;95711.63;4979045;28;20707;-71
2020/12/04 04:36:22;;;;;;;24.17;19.27;;;;;;;-2.09;94.52;95706.53;4990362;28;21106;-71
2020/12/04 04:38:50;;;;;;;25.57;20.60;;;;;;;-2.29;96.28;95708.34;4979524;28;20736;-71
2020/12/04 04:41:17;;;;;;;26.27;19.17;;;;;;;-2.15;96.23;95704.50;4991074;28;20583;-71
2020/12/04 04:43:45;;;;;;;23.67;18.37;;;;;;;-2.16;95.58;95700.28;4974529;28;20482;-70
2020/12/04 04:46:18;;;;;;;26.40;19.97;;;;;;;-2.31;95.68;95708.47;4984509;28;20459;-70
2020/12/04 04:48:54;;;;;;;21.17;17.57;;;;;;;-2.26;95.51;95726.25;4967186;28;22391;-70
2020/12/04 04:51:22;;;;;;;26.83;19.13;;;;;;;-2.12;95.80;95702.44;4984214;28;20456;-70
2020/12/04 04:53:56;;;;;;;24.73;20.17;;;;;;;-2.17;96.38;95701.22;4974657;28;20476;-70
2020/12/04 04:56:23;;;;;;;26.57;20.73;;;;;;;-2.21;95.93;95698.09;4982617;28;20966;-70
2020/12/04 04:58:50;;;;;;;104.53;58.20;;;;;;;-2.05;94.95;95693.13;4991436;28;20456;-69
2020/12/04 05:01:18;;;;;;;55.10;36.20;;;;;;;-2.10;96.14;95710.09;4971775;28;20464;-70
2020/12/04 05:03:59;;;;;;;30.63;22.80;;;;;;;-2.02;94.48;95701.59;4962688;28;20491;-70
2020/12/04 05:06:33;;;;;;;69.07;44.77;;;;;;;-2.07;95.28;95689.88;4987621;28;20769;-66
2020/12/04 05:09:01;;;;;;;104.47;68.50;;;;;;;-1.99;94.96;95691.72;4982847;28;21015;-68
2020/12/04 05:11:28;;;;;;;36.93;29.67;;;;;;;-1.88;94.45;95676.97;4989141;28;20456;-66
2020/12/04 05:14:14;;;;;;;32.10;25.23;;;;;;;-2.06;94.98;95680.28;4996726;28;20494;-67
2020/12/04 05:16:43;;;;;;;30.97;24.27;;;;;;;-2.02;95.01;95680.84;4994195;28;20791;-66
2020/12/04 05:19:10;;;;;;;35.73;28.60;;;;;;;-2.03;95.73;95664.44;4959238;28;20468;-66
2020/12/04 05:21:38;;;;;;;24.87;20.90;;;;;;;-1.84;94.37;95663.53;4981489;28;21016;-73
2020/12/04 05:24:06;;;;;;;22.63;18.13;;;;;;;-1.93;94.62;95695.56;4996100;28;20474;-73
2020/12/04 05:26:35;;;;;;;22.63;17.50;;;;;;;-1.85;94.93;95685.25;4980004;28;20452;-72
2020/12/04 05:29:04;;;;;;;24.87;18.20;;;;;;;-1.83;93.38;95690.31;4995909;28;20483;-73
2020/12/04 05:31:33;;;;;;;21.23;18.13;;;;;;;-1.84;92.83;95686.91;4990765;28;20806;-73
2020/12/04 05:34:00;;;;;;;26.37;18.03;;;;;;;-1.90;93.75;95688.28;4957138;28;20480;-72
2020/12/04 05:36:30;;;;;;;19.13;16.00;;;;;;;-1.96;94.35;95707.03;4972594;28;20332;-72
2020/12/04 05:38:58;;;;;;;23.73;16.57;;;;;;;-1.85;93.69;95697.44;4991785;28;21026;-73
2020/12/04 05:41:26;;;;;;;20.93;16.17;;;;;;;-1.97;94.38;95704.59;4976290;28;20459;-73
2020/12/04 05:43:54;;;;;;;20.10;16.57;;;;;;;-1.87;94.01;95694.16;4992594;28;20467;-72
2020/12/04 05:46:23;;;;;;;21.40;17.03;;;;;;;-1.87;93.77;95694.97;4982314;28;20463;-72
2020/12/04 05:48:58;;;;;;;25.97;17.20;;;;;;;-1.85;93.60;95711.22;4967002;28;20566;-73
2020/12/04 05:51:27;;;;;;;20.67;16.10;;;;;;;-2.05;95.43;95713.06;4979962;28;20459;-73
2020/12/04 05:53:54;;;;;;;21.63;16.67;;;;;;;-2.11;95.68;95714.44;4991192;28;20664;-72
2020/12/04 05:56:22;;;;;;;21.53;16.73;;;;;;;-2.04;96.29;95718.13;4982396;28;20452;-72
2020/12/04 05:58:54;;;;;;;20.67;17.03;;;;;;;-1.97;95.63;95704.59;4987522;28;20276;-71
2020/12/04 06:01:23;;;;;;;20.63;16.47;;;;;;;-2.03;95.27;95711.16;4981391;28;20942;-72
2020/12/04 06:03:51;;;;;;;21.37;16.67;;;;;;;-1.91;93.41;95715.19;4969824;28;20471;-72
2020/12/04 06:06:25;;;;;;;19.70;15.70;;;;;;;-2.00;95.19;95712.66;4972539;28;20538;-73
2020/12/04 06:08:53;;;;;;;20.07;17.63;;;;;;;-2.21;96.08;95726.63;4992877;28;20492;-72
2020/12/04 06:11:21;;;;;;;18.90;16.90;;;;;;;-2.10;96.20;95716.06;4992704;28;20458;-73
2020/12/04 06:13:51;;;;;;;22.00;17.93;;;;;;;-1.99;95.16;95722.09;4974898;28;20483;-72
2020/12/04 06:16:19;;;;;;;20.40;16.37;;;;;;;-2.11;94.96;95721.44;4988101;28;20445;-72
2020/12/04 06:18:46;;;;;;;22.03;15.77;;;;;;;-2.07;94.62;95715.00;4996049;28;20813;-73
2020/12/04 06:21:13;;;;;;;22.00;18.67;;;;;;;-2.27;96.02;95707.28;4949724;28;20959;-72
2020/12/04 06:24:04;;;;;;;23.17;19.47;;;;;;;-2.16;94.69;95708.88;4993258;28;20452;-72
2020/12/04 06:26:45;;;;;;;22.20;18.47;;;;;;;-2.28;94.60;95700.41;4993296;28;20763;-73
2020/12/04 06:29:13;;;;;;;24.27;18.33;;;;;;;-2.43;97.42;95696.63;4991655;28;20854;-71
2020/12/04 06:31:40;;;;;;;25.97;18.77;;;;;;;-2.54;98.03;95698.44;4994334;28;20455;-73
2020/12/04 06:34:14;;;;;;;22.27;17.83;;;;;;;-2.42;96.87;95700.88;4995216;28;20566;-72
2020/12/04 06:36:41;;;;;;;22.60;17.83;;;;;;;-2.42;96.99;95699.09;4959781;28;20452;-72
2020/12/04 06:39:09;;;;;;;23.93;18.17;;;;;;;-2.51;96.75;95699.91;4991749;28;20441;-72
2020/12/04 06:41:43;;;;;;;23.50;17.50;;;;;;;-2.77;98.43;95705.69;4995150;28;20763;-74
2020/12/04 06:44:18;;;;;;;20.73;16.10;;;;;;;-2.77;98.58;95703.91;4992503;28;20535;-72
2020/12/04 06:46:47;;;;;;;20.87;16.37;;;;;;;-2.72;98.81;95706.09;4982134;28;20462;-72
2020/12/04 06:49:37;;;;;;;19.97;16.60;;;;;;;-2.81;98.75;95701.75;4988267;28;20591;-72
2020/12/04 06:52:09;;;;;;;25.87;18.93;;;;;;;-2.75;97.82;95716.75;4959712;28;20526;-72
2020/12/04 06:54:41;;;;;;;25.27;20.50;;;;;;;-2.79;98.45;95707.63;4994969;28;20787;-73
2020/12/04 06:57:09;;;;;;;23.93;18.70;;;;;;;-2.71;98.84;95723.28;4994684;28;20837;-71
2020/12/04 06:59:40;;;;;;;20.70;17.23;;;;;;;-2.85;99.21;95736.66;4993494;28;20816;-73
2020/12/04 07:02:09;;;;;;;21.50;17.83;;;;;;;-3.00;99.65;95742.25;4994068;28;20575;-72
2020/12/04 07:04:38;;;;;;;21.73;18.07;;;;;;;-2.95;100.00;95729.69;4990161;28;20763;-73
2020/12/04 07:07:07;;;;;;;26.17;18.90;;;;;;;-2.88;98.96;95732.56;4955591;28;20483;-72
2020/12/04 07:09:35;;;;;;;23.47;17.23;;;;;;;-2.95;99.81;95737.47;4994150;28;21057;-73
2020/12/04 07:12:04;;;;;;;21.43;18.00;;;;;;;-3.05;100.00;95736.66;4993220;28;20459;-73
2020/12/04 07:14:32;;;;;;;23.33;18.43;;;;;;;-3.03;100.00;95745.09;4991688;28;20875;-73
2020/12/04 07:17:00;;;;;;;24.33;16.97;;;;;;;-3.00;100.00;95742.25;4993273;28;20707;-73
2020/12/04 07:19:27;;;;;;;21.20;16.80;;;;;;;-2.79;99.93;95747.31;4979323;28;20466;-72
2020/12/04 07:21:55;;;;;;;25.90;19.07;;;;;;;-2.69;97.98;95752.50;4989589;28;20437;-73
2020/12/04 07:24:22;;;;;;;25.23;19.37;;;;;;;-2.63;97.83;95749.34;4949665;28;20463;-72
2020/12/04 07:26:56;;;;;;;20.63;17.17;;;;;;;-2.54;98.24;95741.69;4993027;28;21112;-73
2020/12/04 07:29:23;;;;;;;26.67;19.53;;;;;;;-2.55;98.16;95738.31;4991363;28;20596;-73
2020/12/04 07:31:52;;;;;;;24.73;19.17;;;;;;;-2.52;98.20;95738.03;4983858;28;20474;-72
2020/12/04 07:34:22;;;;;;;24.53;18.43;;;;;;;-2.45;96.73;95734.88;4989727;28;20483;-72
2020/12/04 07:36:52;;;;;;;25.67;17.93;;;;;;;-2.33;95.60;95737.19;4995538;28;20506;-73
2020/12/04 07:39:24;;;;;;;25.43;18.13;;;;;;;-2.33;96.29;95744.97;4956519;28;20491;-72
2020/12/04 07:41:51;;;;;;;26.40;18.60;;;;;;;-2.23;94.81;95749.31;4996520;28;20826;-73
2020/12/04 07:44:27;;;;;;;23.17;18.17;;;;;;;-2.15;94.64;95744.22;4988834;28;20977;-72
2020/12/04 07:46:59;;;;;;;24.90;18.40;;;;;;;-2.22;94.21;95741.41;4984248;28;20490;-73
2020/12/04 07:49:28;;;;;;;24.47;18.87;;;;;;;-2.10;94.77;95742.03;4989798;28;21023;-73
2020/12/04 07:52:11;;;;;;;26.23;18.80;;;;;;;-2.14;94.40;95753.66;4995023;28;20458;-73
2020/12/04 07:54:38;;;;;;;21.90;19.47;;;;;;;-1.96;94.32;95753.75;4954383;28;21480;-72
2020/12/04 07:57:06;;;;;;;22.73;19.33;;;;;;;-2.04;94.59;95746.69;4995172;28;20865;-72
2020/12/04 07:59:34;;;;;;;26.00;17.70;;;;;;;-1.92;94.09;95743.91;4992536;28;20490;-73
2020/12/04 08:02:03;;;;;;;24.63;19.60;;;;;;;-1.76;92.08;95746.72;4985225;28;20487;-73
2020/12/04 08:04:32;;;;;;;25.33;19.17;;;;;;;-1.64;90.39;95730.97;4990363;28;20684;-73
2020/12/04 08:07:10;;;;;;;23.93;17.77;;;;;;;-1.76;91.40;95733.72;4994802;28;20996;-73
2020/12/04 08:09:38;;;;;;;23.17;16.73;;;;;;;-1.75;90.19;95735.38;4956187;28;20661;-73
2020/12/04 08:12:11;;;;;;;21.40;17.30;;;;;;;-1.71;90.76;95748.06;4995222;28;20263;-72
2020/12/04 08:14:39;;;;;;;22.10;18.50;;;;;;;-1.69;91.17;95753.97;4988714;28;20771;-73
2020/12/04 08:17:07;;;;;;;21.73;17.47;;;;;;;-1.67;90.96;95750.25;4984289;28;20495;-72
2020/12/04 08:19:37;;;;;;;24.93;16.93;;;;;;;-1.69;90.76;95751.38;4989624;28;20684;-73
2020/12/04 08:22:06;;;;;;;23.40;18.13;;;;;;;-1.65;90.18;95750.13;4990986;28;20460;-71
2020/12/04 08:24:36;;;;;;;23.37;17.87;;;;;;;-1.77;91.16;95742.47;4991849;28;20486;-73
2020/12/04 08:27:08;;;;;;;24.93;19.30;;;;;;;-1.65;90.29;95750.13;4959346;28;20466;-72
2020/12/04 08:29:37;;;;;;;20.37;17.53;;;;;;;-1.82;90.22;95752.47;4993487;28;20515;-74
2020/12/04 08:32:09;;;;;;;24.90;18.50;;;;;;;-1.69;91.24;95740.97;4992636;28;20455;-73
2020/12/04 08:34:38;;;;;;;27.40;18.33;;;;;;;-1.68;91.37;95742.63;4988765;28;20824;-73
2020/12/04 08:37:07;;;;;;;22.97;17.73;;;;;;;-1.64;90.97;95738.75;4997014;28;20462;-72
2020/12/04 08:39:46;;;;;;;23.00;17.73;;;;;;;-1.61;92.25;95741.88;4996332;28;20777;-73
2020/12/04 08:42:29;;;;;;;23.10;18.27;;;;;;;-1.71;91.39;95742.88;4959669;28;20769;-72
2020/12/04 08:45:04;;;;;;;28.53;20.90;;;;;;;-1.68;92.36;95742.63;4994510;28;20578;-74
2020/12/04 08:47:38;;;;;;;25.73;19.27;;;;;;;-1.67;92.16;95732.06;4993773;28;20456;-73
2020/12/04 08:50:17;;;;;;;24.53;16.67;;;;;;;-1.28;88.71;95741.47;4982997;28;20487;-72
2020/12/04 08:52:50;;;;;;;21.23;17.73;;;;;;;-1.36;89.66;95742.19;4993686;28;20567;-73
2020/12/04 08:55:19;;;;;;;24.67;18.43;;;;;;;-1.28;89.74;95741.47;4989239;28;20480;-72
2020/12/04 08:57:47;;;;;;;22.70;16.93;;;;;;;-1.34;89.91;95729.84;4963509;28;20465;-72
2020/12/04 09:00:16;;;;;;;20.13;16.80;;;;;;;-1.43;89.42;95722.94;4994046;28;20463;-72
2020/12/04 09:02:44;;;;;;;22.83;17.37;;;;;;;-1.39;89.22;95721.69;4994276;28;20448;-72
2020/12/04 09:05:14;;;;;;;23.80;18.63;;;;;;;-1.32;89.57;95716.72;4984113;28;20483;-72
2020/12/04 09:07:41;;;;;;;22.47;17.30;;;;;;;-0.89;87.38;95720.41;4994138;28;20451;-72
2020/12/04 09:10:11;;;;;;;20.53;16.77;;;;;;;-0.99;88.32;95711.84;4995889;28;20570;-71
2020/12/04 09:12:38;;;;;;;23.27;17.17;;;;;;;-0.92;86.80;95715.50;4960557;28;20471;-72
2020/12/04 09:15:06;;;;;;;20.90;16.43;;;;;;;-0.80;87.10;95702.28;4997505;28;20490;-72
2020/12/04 09:17:34;;;;;;;24.50;17.77;;;;;;;-0.83;87.67;95695.56;4994906;28;20491;-73
2020/12/04 09:20:01;;;;;;;20.63;15.60;;;;;;;-0.86;87.75;95688.06;4983927;28;20312;-74
2020/12/04 09:22:29;;;;;;;17.97;15.50;;;;;;;-0.80;87.24;95686.66;4992617;28;20734;-74
2020/12/04 09:24:59;;;;;;;22.53;16.37;;;;;;;-0.59;86.53;95684.53;4993903;28;20550;-74
2020/12/04 09:27:26;;;;;;;20.50;15.60;;;;;;;-0.74;85.90;95710.31;4954206;28;20490;-74
2020/12/04 09:29:53;;;;;;;20.03;15.80;;;;;;;-0.60;85.92;95684.72;4998178;28;20316;-74
2020/12/04 09:32:21;;;;;;;21.67;16.00;;;;;;;-0.48;84.60;95693.09;4993179;28;20202;-73
2020/12/04 09:34:49;;;;;;;17.10;14.60;;;;;;;-0.45;84.21;95696.19;4996292;28;20224;-74
2020/12/04 09:37:22;;;;;;;21.53;16.77;;;;;;;-0.50;83.70;95695.03;4982043;28;20474;-72
2020/12/04 09:39:51;;;;;;;22.50;18.43;;;;;;;-0.37;83.28;95702.44;4996344;28;20205;-73
2020/12/04 09:42:19;;;;;;;19.63;16.40;;;;;;;-0.34;82.75;95702.94;4960885;28;20585;-71
2020/12/04 09:44:47;;;;;;;16.93;14.53;;;;;;;-0.23;83.88;95711.47;4996338;28;20484;-73
2020/12/04 09:47:14;;;;;;;20.10;16.20;;;;;;;-0.08;87.68;95686.53;4991089;28;20460;-72
2020/12/04 09:49:42;;;;;;;20.40;16.13;;;;;;;0.07;89.00;95671.13;4993059;28;20724;-73
2020/12/04 09:52:09;;;;;;;20.07;15.63;;;;;;;0.15;82.89;95670.34;4982581;28;20233;-72
2020/12/04 09:54:39;;;;;;;22.43;16.67;;;;;;;0.15;83.08;95670.34;4991634;28;20217;-73
2020/12/04 09:57:08;;;;;;;19.20;14.37;;;;;;;0.26;81.95;95667.47;4996350;28;20457;-73
2020/12/04 09:59:36;;;;;;;19.43;15.87;;;;;;;0.93;79.49;95672.84;4959128;28;20456;-74
2020/12/04 10:02:04;;;;;;;17.90;14.63;;;;;;;1.16;76.84;95660.03;4995723;28;20638;-72
2020/12/04 10:04:32;;;;;;;18.23;15.13;;;;;;;1.10;77.45;95661.47;4993571;28;20228;-73
2020/12/04 10:06:59;;;;;;;20.23;15.53;;;;;;;1.20;76.58;95647.44;4984337;28;20225;-73
2020/12/04 10:09:27;;;;;;;15.80;14.03;;;;;;;1.02;76.93;95627.56;4992268;28;20423;-73
2020/12/04 10:11:55;;;;;;;17.70;15.33;;;;;;;1.00;77.12;95638.16;4996657;28;20197;-73
2020/12/04 10:14:25;;;;;;;17.97;15.53;;;;;;;1.02;77.03;95635.38;4956024;28;20306;-73
2020/12/04 10:16:53;;;;;;;18.00;13.40;;;;;;;0.84;77.32;95632.94;4995730;28;20673;-73
2020/12/04 10:19:21;;;;;;;19.10;15.57;;;;;;;1.00;76.65;95645.97;4990317;28;20212;-72
2020/12/04 10:21:49;;;;;;;17.83;14.43;;;;;;;0.99;78.02;95644.34;4996140;28;20213;-73
2020/12/04 10:24:17;;;;;;;18.30;13.83;;;;;;;1.36;76.81;95644.84;4982244;28;20233;-72
2020/12/04 10:26:45;;;;;;;19.50;15.73;;;;;;;1.15;76.24;95627.88;4993513;28;20201;-73
2020/12/04 10:29:13;;;;;;;18.17;15.33;;;;;;;1.15;76.43;95614.84;4968106;28;20785;-72
2020/12/04 10:31:41;;;;;;;19.77;14.50;;;;;;;1.08;76.14;95607.81;4987297;28;20223;-72
2020/12/04 10:34:10;;;;;;;15.17;13.57;;;;;;;0.93;77.35;95603.25;4994641;28;20227;-72
2020/12/04 10:36:38;;;;;;;19.90;14.30;;;;;;;0.89;77.98;95596.75;4991738;28;20488;-73
2020/12/04 10:39:06;;;;;;;21.93;16.23;;;;;;;0.79;77.87;95609.94;4981822;28;20306;-72
2020/12/04 10:41:34;;;;;;;16.40;13.50;;;;;;;1.08;79.23;95616.47;4993590;28;20705;-72
2020/12/04 10:44:03;;;;;;;19.07;15.60;;;;;;;1.22;76.57;95609.78;4992585;28;20221;-73
2020/12/04 10:46:31;;;;;;;16.17;14.33;;;;;;;1.21;77.33;95613.38;4956668;28;20317;-73
2020/12/04 10:48:59;;;;;;;15.03;13.43;;;;;;;1.30;78.84;95616.78;4996318;28;20768;-73
2020/12/04 10:51:26;;;;;;;16.03;13.13;;;;;;;0.88;77.45;95608.16;4990725;28;20599;-72
2020/12/04 10:53:53;;;;;;;18.47;13.90;;;;;;;1.23;77.44;95615.81;4983602;28;20289;-72
2020/12/04 10:56:21;;;;;;;16.83;14.53;;;;;;;1.43;78.57;95611.88;4991193;28;20259;-72
2020/12/04 10:58:48;;;;;;;17.87;13.93;;;;;;;1.19;77.24;95598.84;4995405;28;20216;-74
2020/12/04 11:01:23;;;;;;;16.17;14.53;;;;;;;1.11;76.67;95600.50;4963470;28;20204;-71
2020/12/04 11:06:36;;;;;;;17.40;14.20;;;;;;;1.41;76.31;95592.97;4991686;28;20343;-72
2020/12/04 11:09:03;;;;;;;17.63;14.93;;;;;;;1.43;76.47;95588.41;4983481;28;21078;-71
2020/12/04 11:11:30;;;;;;;18.37;14.83;;;;;;;1.49;75.43;95586.09;4992377;28;20362;-73
2020/12/04 11:13:58;;;;;;;16.10;14.40;;;;;;;1.26;76.49;95587.59;4996408;28;20262;-73
2020/12/04 11:16:27;;;;;;;19.47;15.40;;;;;;;1.29;76.55;95594.28;4992399;28;20410;-73
2020/12/04 11:18:54;;;;;;;15.77;13.73;;;;;;;1.24;76.90;95597.41;4960512;28;20228;-72
2020/12/04 11:21:27;;;;;;;14.53;12.97;;;;;;;1.00;77.48;95583.38;4990838;28;20377;-72
2020/12/04 11:23:55;;;;;;;17.20;13.90;;;;;;;1.30;76.59;95573.25;4984562;28;20219;-73
2020/12/04 11:26:22;;;;;;;14.97;13.37;;;;;;;1.25;76.71;95575.53;4988080;28;20202;-72
2020/12/04 11:28:49;;;;;;;19.37;14.77;;;;;;;1.35;75.92;95572.75;4996033;28;20380;-74